メインページ
METAR-TAF:

METAR-TAF

空港 :

ディオリ・アマニ国際空港

ニアメ, ニジェール

緯度: 13-29N, 経度: 002-10E, 海抜: 223m

現時点の気象観測

当レポートは48分前の15:00(UTC)に作成
西の風 4kt、南/南西からの間で変化する
気温 36°C
湿度 31%
気圧 1010 hPa
視程10km以上
高度2000ftの雲はほとんどない

METAR: DRRN 251500Z 26004KT 200V360 9999 FEW020 36/16 Q1010 NOSIG

時間: 16:48 (15:48 UTC)

予報

当レポートは4時間48分前の11:00(UTC)に作成
予報は25日の 12時(UTC)から 26日の 18時(UTC)まで有効
南西の風 8kt
視程: 8000m
高度3300ftの雲はほとんどない
確率 40% :
25日の 15時(UTC)から 25日の 20時(UTC)まで一時的に
高度4000ftの雲はほとんどない, 積乱雲.
激しい雷雨

TAF: DRRN 251100Z 2512/2618 22008KT 8000 FEW033 PROB40 TEMPO 2515/2520 TS FEW040CB

4,000以上の空港の気象観測と天気予報(METAR報とTAF報)

利用可能な観測所は地図上に黄色い丸と赤い丸で示す。

丸の上にカーソルを重ねると観測所名を参照できる。

次にクリックすると気象観測と天気予報を参照できる。

マップの切り替え:黒色「×」印の緑ボタンをクリックして拡大、「-」印の緑ボタンをクリックして縮小、緑色の三角印をクリックして隣りの地図に切り替え


METAR-TAF: